Anacostia, District of Columbia
Current Conditions -  °F | °C
As of 1:52 AM on Saturday 20 Dec 2014 (Local Time) from KDCA Reporting Station
Clear Clear  
Wind Chill: -3°   Ceiling: Unl
Heat Index:   Visibility: 10mi
Dew Point: -7°   Wind: 8mph
Humidity: 56%   Direction: 330°NNW
Pressure: 30.26"   Gusts: NA
Location:  38.8618°N, 77.0026°W
Report Text: KDCA 200652Z 33007KT 10SM CLR 01/M07 A3026 RMK AO2 SLP247 T00111067
Loading
Personal Weather Stations






























Interactive Weather Map New forecast layout! Learn more

10-Day Weather Forecast

Advertisements
Track Severe Weather on mobile